Time;durP1;ratioP1;P1;durP2;ratioP2;P2;SDS_P1;SDS_P2;PMS_P1;PMS_P2;Temp;Humidity;BMP_temperature;BMP_pressure;BME280_temperature;BME280_humidity;BME280_pressure;Samples;Min_cycle;Max_cycle;Signal;HPM_P1;HPM_P2
2023/08/27 00:00:47;;;;;;;14.40;5.97;;;;;;;15.27;100.00;95385.44;4954001;28;24434;-75
2023/08/27 00:03:14;;;;;;;10.82;5.60;;;;;;;15.27;100.00;95367.19;4965702;28;24438;-75
2023/08/27 00:05:43;;;;;;;10.57;5.07;;;;;;;15.44;100.00;95350.06;4965258;28;24434;-74
2023/08/27 00:08:12;;;;;;;7.10;4.67;;;;;;;15.35;100.00;95336.06;4954443;28;24478;-75
2023/08/27 00:10:38;;;;;;;12.70;4.97;;;;;;;15.34;100.00;95323.13;4960789;28;25008;-75
2023/08/27 00:13:05;;;;;;;9.77;5.00;;;;;;;15.55;100.00;95339.50;4967347;28;24469;-75
2023/08/27 00:15:32;;;;;;;12.30;5.75;;;;;;;15.49;100.00;95353.06;4954004;28;24508;-74
2023/08/27 00:17:58;;;;;;;9.20;5.60;;;;;;;15.41;100.00;95360.75;4953587;28;24457;-75
2023/08/27 00:20:25;;;;;;;9.30;6.13;;;;;;;15.39;100.00;95373.13;4958217;28;24438;-75
2023/08/27 00:22:51;;;;;;;8.35;6.07;;;;;;;15.44;100.00;95389.22;4972644;28;24810;-75
2023/08/27 00:25:19;;;;;;;9.43;7.07;;;;;;;15.41;100.00;95389.47;4972971;28;24441;-74
2023/08/27 00:27:45;;;;;;;7.68;6.50;;;;;;;15.45;100.00;95399.50;4972499;28;24453;-75
2023/08/27 00:30:12;;;;;;;9.00;6.25;;;;;;;15.48;100.00;95408.84;4969214;28;24453;-75
2023/08/27 00:32:39;;;;;;;10.45;6.40;;;;;;;15.44;100.00;95426.56;4959482;28;24461;-75
2023/08/27 00:35:06;;;;;;;8.35;5.72;;;;;;;15.45;100.00;95430.81;4972711;28;24441;-75
2023/08/27 00:37:32;;;;;;;7.97;5.13;;;;;;;15.51;100.00;95426.84;4966356;28;24456;-75
2023/08/27 00:39:59;;;;;;;8.05;5.00;;;;;;;15.50;100.00;95425.22;4969505;28;24444;-75
2023/08/27 00:42:27;;;;;;;6.32;4.93;;;;;;;15.49;100.00;95420.94;4972441;28;24449;-75
2023/08/27 00:44:53;;;;;;;7.40;5.60;;;;;;;15.51;100.00;95428.66;4972949;28;24441;-75
2023/08/27 00:47:20;;;;;;;6.53;5.40;;;;;;;15.57;100.00;95421.06;4963322;28;24980;-75
2023/08/27 00:49:47;;;;;;;6.85;5.55;;;;;;;15.59;100.00;95426.19;4971621;28;24433;-75
2023/08/27 00:52:17;;;;;;;7.00;4.97;;;;;;;15.70;100.00;95419.06;4972397;28;24448;-75
2023/08/27 00:54:44;;;;;;;7.95;5.60;;;;;;;15.64;100.00;95403.91;4972352;28;24492;-75
2023/08/27 00:57:11;;;;;;;7.93;6.03;;;;;;;15.72;100.00;95396.28;4967455;28;24795;-75
2023/08/27 00:59:39;;;;;;;8.13;5.88;;;;;;;15.77;100.00;95388.03;4970257;28;24460;-75
2023/08/27 01:02:05;;;;;;;6.73;5.83;;;;;;;15.73;100.00;95387.47;4971817;28;24459;-75
2023/08/27 01:04:32;;;;;;;6.27;5.57;;;;;;;15.61;100.00;95378.09;4971969;28;24476;-74
2023/08/27 01:07:07;;;;;;;6.50;5.82;;;;;;;15.46;100.00;95384.66;4960011;28;24448;-75
2023/08/27 01:09:38;;;;;;;6.43;5.75;;;;;;;15.29;100.00;95390.56;4958041;28;25019;-75
2023/08/27 01:12:10;;;;;;;12.73;5.97;;;;;;;15.25;100.00;95380.38;4970461;28;24490;-75
2023/08/27 01:14:43;;;;;;;9.38;5.22;;;;;;;15.15;100.00;95387.34;4972002;28;24442;-75
2023/08/27 01:17:14;;;;;;;6.68;5.20;;;;;;;15.24;100.00;95393.56;4971413;28;24457;-75
2023/08/27 01:19:41;;;;;;;6.50;4.07;;;;;;;15.32;100.00;95395.50;4971260;28;25027;-75
2023/08/27 01:22:09;;;;;;;4.23;3.83;;;;;;;15.37;100.00;95391.53;4958803;28;24474;-75
2023/08/27 01:24:35;;;;;;;4.25;3.78;;;;;;;15.39;100.00;95378.34;4952666;28;24441;-75
2023/08/27 01:27:06;;;;;;;6.00;4.63;;;;;;;15.52;100.00;95378.91;4953139;28;24445;-75
2023/08/27 01:29:38;;;;;;;6.00;4.45;;;;;;;15.67;100.00;95374.13;4956256;28;24461;-75
2023/08/27 01:32:12;;;;;;;6.63;4.47;;;;;;;15.87;100.00;95372.34;4960090;28;24810;-75
2023/08/27 01:34:40;;;;;;;6.63;5.28;;;;;;;15.99;100.00;95365.22;4952713;28;24442;-75
2023/08/27 01:37:10;;;;;;;6.55;5.15;;;;;;;15.96;100.00;95361.06;4953813;28;24449;-74
2023/08/27 01:39:37;;;;;;;5.88;4.80;;;;;;;15.86;100.00;95357.63;4952592;28;24449;-73
2023/08/27 01:42:04;;;;;;;7.75;5.38;;;;;;;15.95;100.00;95343.78;4952658;28;24434;-74
2023/08/27 01:44:31;;;;;;;6.82;4.80;;;;;;;15.95;100.00;95320.25;4964614;28;24797;-74
2023/08/27 01:46:57;;;;;;;5.65;4.57;;;;;;;15.84;100.00;95344.72;4966092;28;24454;-74
2023/08/27 01:49:24;;;;;;;7.95;5.35;;;;;;;15.65;100.00;95353.41;4967336;28;24990;-74
2023/08/27 01:51:50;;;;;;;7.53;4.90;;;;;;;15.38;100.00;95367.06;4957674;28;24434;-74
2023/08/27 01:54:18;;;;;;;5.15;4.28;;;;;;;15.30;100.00;95376.53;4963414;28;24434;-74
2023/08/27 01:56:45;;;;;;;6.47;4.85;;;;;;;15.25;100.00;95376.94;4965442;28;24433;-74
2023/08/27 01:59:11;;;;;;;7.70;4.78;;;;;;;15.17;100.00;95379.41;4955394;28;24461;-74
2023/08/27 02:01:38;;;;;;;6.47;4.60;;;;;;;15.10;100.00;95368.69;4952968;28;25008;-74
2023/08/27 02:04:05;;;;;;;6.45;4.35;;;;;;;15.03;100.00;95367.56;4967298;28;24442;-74
2023/08/27 02:06:32;;;;;;;5.53;3.97;;;;;;;15.06;100.00;95361.25;4952076;28;24441;-74
2023/08/27 02:08:58;;;;;;;5.10;4.28;;;;;;;15.18;100.00;95350.56;4960811;28;24470;-74
2023/08/27 02:11:26;;;;;;;5.68;4.07;;;;;;;15.26;100.00;95342.06;4959514;28;24805;-74
2023/08/27 02:13:52;;;;;;;4.90;3.60;;;;;;;15.32;100.00;95327.66;4952248;29;24437;-74
2023/08/27 02:16:19;;;;;;;10.77;3.93;;;;;;;15.55;100.00;95317.78;4960575;28;24441;-75
2023/08/27 02:18:45;;;;;;;6.07;4.15;;;;;;;15.54;100.00;95308.31;4971031;28;25043;-75
2023/08/27 02:21:12;;;;;;;4.82;3.42;;;;;;;15.59;100.00;95325.19;4952677;28;24441;-75
2023/08/27 02:23:38;;;;;;;6.70;3.80;;;;;;;15.44;100.00;95343.06;4952291;28;24445;-75
2023/08/27 02:26:05;;;;;;;6.47;3.53;;;;;;;15.43;100.00;95332.75;4958761;28;24902;-75
2023/08/27 02:28:33;;;;;;;4.22;3.80;;;;;;;15.47;100.00;95340.19;4970888;28;24437;-75
2023/08/27 02:31:00;;;;;;;7.63;3.85;;;;;;;15.48;100.00;95348.81;4970659;28;24469;-74
2023/08/27 02:33:26;;;;;;;6.68;3.85;;;;;;;15.45;100.00;95352.53;4954652;28;24468;-76
2023/08/27 02:35:53;;;;;;;5.70;3.70;;;;;;;15.53;100.00;95351.84;4964884;28;24444;-75
2023/08/27 02:38:19;;;;;;;6.03;3.88;;;;;;;15.62;100.00;95342.38;4970310;28;24835;-75
2023/08/27 02:40:46;;;;;;;6.28;4.28;;;;;;;15.69;100.00;95346.94;4970523;28;24461;-75
2023/08/27 02:43:13;;;;;;;6.10;3.92;;;;;;;15.64;100.00;95353.50;4970855;28;24437;-75
2023/08/27 02:45:41;;;;;;;7.77;4.83;;;;;;;15.58;100.00;95347.06;4970583;28;24527;-75
2023/08/27 02:48:08;;;;;;;7.38;4.10;;;;;;;15.64;100.00;95340.44;4970679;28;24440;-75
2023/08/27 02:50:34;;;;;;;5.82;4.40;;;;;;;15.62;100.00;95347.59;4961005;28;24816;-75
2023/08/27 02:53:01;;;;;;;5.88;4.53;;;;;;;15.52;100.00;95352.81;4951853;28;24445;-75
2023/08/27 02:55:28;;;;;;;7.55;4.95;;;;;;;15.48;100.00;95352.25;4958587;28;24433;-76
2023/08/27 02:57:54;;;;;;;7.57;4.15;;;;;;;15.50;100.00;95346.91;4963015;28;24442;-75
2023/08/27 03:00:21;;;;;;;5.93;4.13;;;;;;;15.51;100.00;95334.69;4964477;28;25021;-75
2023/08/27 03:02:49;;;;;;;6.03;4.60;;;;;;;15.58;100.00;95330.56;4965271;28;24452;-75
2023/08/27 03:05:15;;;;;;;7.05;4.00;;;;;;;15.62;100.00;95329.34;4965213;28;24548;-75
2023/08/27 03:07:42;;;;;;;5.82;4.15;;;;;;;15.51;100.00;95326.84;4963341;28;24437;-75
2023/08/27 03:10:08;;;;;;;7.13;4.13;;;;;;;15.50;100.00;95318.22;4963506;28;24434;-74
2023/08/27 03:12:35;;;;;;;5.80;3.80;;;;;;;15.57;100.00;95327.09;4964316;28;24460;-75
2023/08/27 03:15:02;;;;;;;4.97;3.85;;;;;;;15.66;100.00;95325.50;4963857;28;24445;-75
2023/08/27 03:17:28;;;;;;;4.55;3.78;;;;;;;15.61;100.00;95331.13;4963185;28;24445;-75
2023/08/27 03:19:56;;;;;;;6.30;4.22;;;;;;;15.60;100.00;95337.28;4963491;28;24461;-75
2023/08/27 03:22:22;;;;;;;4.90;3.97;;;;;;;15.70;100.00;95337.31;4964400;28;24448;-75
2023/08/27 03:24:49;;;;;;;6.07;3.90;;;;;;;15.70;100.00;95330.31;4963503;28;24437;-75
2023/08/27 03:27:15;;;;;;;6.03;3.83;;;;;;;15.70;100.00;95332.09;4964726;28;24441;-75
2023/08/27 03:29:42;;;;;;;7.32;4.30;;;;;;;15.67;100.00;95324.53;4962354;28;24437;-75
2023/08/27 03:32:11;;;;;;;4.57;4.10;;;;;;;15.67;100.00;95314.91;4963950;28;24846;-75
2023/08/27 03:34:37;;;;;;;6.72;3.65;;;;;;;15.67;100.00;95293.22;4964124;28;24438;-75
2023/08/27 03:37:05;;;;;;;3.50;3.13;;;;;;;15.73;100.00;95301.31;4962796;28;24449;-75
2023/08/27 03:39:32;;;;;;;4.63;3.80;;;;;;;15.82;100.00;95288.38;4963379;28;24449;-75
2023/08/27 03:41:58;;;;;;;8.77;3.72;;;;;;;15.85;100.00;95290.72;4964349;28;24468;-75
2023/08/27 03:44:25;;;;;;;5.20;3.93;;;;;;;15.79;100.00;95291.25;4963161;28;24454;-74
2023/08/27 03:46:51;;;;;;;4.63;3.50;;;;;;;15.78;100.00;95295.66;4962695;28;24446;-75
2023/08/27 03:49:18;;;;;;;5.07;3.63;;;;;;;15.75;100.00;95306.38;4962169;28;24436;-75
2023/08/27 03:51:44;;;;;;;5.55;3.70;;;;;;;15.58;100.00;95300.06;4963561;28;24444;-74
2023/08/27 03:54:12;;;;;;;4.50;3.57;;;;;;;15.59;100.00;95306.94;4962534;28;25012;-74
2023/08/27 03:56:39;;;;;;;5.80;3.40;;;;;;;15.57;100.00;95303.63;4964115;28;24441;-75
2023/08/27 03:59:06;;;;;;;7.18;3.72;;;;;;;15.56;100.00;95306.38;4961377;28;24977;-75
2023/08/27 04:01:32;;;;;;;4.32;3.88;;;;;;;15.53;100.00;95306.66;4965307;28;24534;-75
2023/08/27 04:03:59;;;;;;;8.43;3.92;;;;;;;15.51;100.00;95292.94;4962133;28;25016;-76
2023/08/27 04:06:26;;;;;;;6.25;3.15;;;;;;;15.57;100.00;95292.34;4961618;28;24445;-75
2023/08/27 04:08:52;;;;;;;4.93;3.60;;;;;;;15.48;100.00;95296.63;4963762;28;24440;-75
2023/08/27 04:11:20;;;;;;;5.65;3.50;;;;;;;15.40;100.00;95291.28;4962969;28;24433;-75
2023/08/27 04:13:46;;;;;;;4.03;3.42;;;;;;;15.41;100.00;95288.53;4961341;28;24441;-74
2023/08/27 04:16:13;;;;;;;5.60;3.50;;;;;;;15.45;100.00;95281.25;4962810;28;24445;-75
2023/08/27 04:18:39;;;;;;;5.33;3.43;;;;;;;15.54;100.00;95258.72;4962294;28;24841;-75
2023/08/27 04:21:06;;;;;;;5.75;3.28;;;;;;;15.57;100.00;95282.72;4953952;28;24472;-75
2023/08/27 04:23:33;;;;;;;5.88;3.42;;;;;;;15.57;100.00;95287.13;4953698;28;24438;-75
2023/08/27 04:25:59;;;;;;;4.40;3.97;;;;;;;15.38;100.00;95277.53;4961644;28;24446;-75
2023/08/27 04:28:27;;;;;;;5.75;3.90;;;;;;;15.24;100.00;95276.19;4958420;28;24981;-75
2023/08/27 04:30:54;;;;;;;4.38;3.10;;;;;;;15.16;100.00;95268.19;4962371;28;24446;-75
2023/08/27 04:33:20;;;;;;;3.33;2.95;;;;;;;15.07;100.00;95277.66;4963072;28;24442;-75
2023/08/27 04:35:49;;;;;;;4.20;3.40;;;;;;;15.04;100.00;95284.94;4961221;28;24461;-75
2023/08/27 04:38:16;;;;;;;5.50;2.47;;;;;;;14.97;100.00;95280.25;4962161;28;24466;-75
2023/08/27 04:40:43;;;;;;;2.80;1.92;;;;;;;15.01;100.00;95280.81;4961176;28;24448;-75
2023/08/27 04:43:08;;;;;;;4.25;1.80;;;;;;;14.94;100.00;95279.69;4964062;28;24437;-75
2023/08/27 04:45:36;;;;;;;3.73;1.80;;;;;;;14.86;100.00;95282.16;4962248;28;24430;-75
2023/08/27 04:48:03;;;;;;;5.80;2.35;;;;;;;14.83;100.00;95277.19;4959438;28;24444;-75
2023/08/27 04:50:29;;;;;;;3.00;2.40;;;;;;;14.89;100.00;95268.84;4972230;28;24537;-75
2023/08/27 04:52:56;;;;;;;2.55;1.98;;;;;;;14.92;100.00;95269.41;4970590;28;24445;-75
2023/08/27 04:55:22;;;;;;;2.40;1.70;;;;;;;15.05;100.00;95276.97;4967550;28;24434;-75
2023/08/27 04:57:49;;;;;;;2.40;1.73;;;;;;;15.03;100.00;95288.50;4970004;28;24999;-75
2023/08/27 05:00:20;;;;;;;2.97;1.90;;;;;;;15.01;100.00;95293.84;4957704;28;24454;-75
2023/08/27 05:02:48;;;;;;;2.25;1.48;;;;;;;15.06;100.00;95291.66;4971998;28;24537;-75
2023/08/27 05:05:14;;;;;;;1.80;1.40;;;;;;;15.03;100.00;95296.34;4971921;28;24430;-75
2023/08/27 05:07:41;;;;;;;4.63;2.05;;;;;;;15.08;100.00;95302.78;4971403;28;24448;-75
2023/08/27 05:10:08;;;;;;;2.28;1.90;;;;;;;15.19;100.00;95305.25;4967893;28;24441;-75
2023/08/27 05:12:35;;;;;;;2.70;2.10;;;;;;;15.24;100.00;95303.09;4952814;28;24445;-74
2023/08/27 05:15:03;;;;;;;3.88;2.47;;;;;;;15.22;100.00;95305.00;4952818;28;24445;-75
2023/08/27 05:17:30;;;;;;;3.45;2.42;;;;;;;15.23;100.00;95301.41;4952591;28;25004;-75
2023/08/27 05:19:58;;;;;;;10.25;3.00;;;;;;;15.09;100.00;95291.41;4967395;28;24457;-74
2023/08/27 05:22:24;;;;;;;4.25;2.70;;;;;;;15.05;100.00;95291.78;4952336;28;24445;-75
2023/08/27 05:24:50;;;;;;;3.35;2.67;;;;;;;15.13;100.00;95291.94;4952585;28;24442;-75
2023/08/27 05:27:16;;;;;;;6.33;2.23;;;;;;;15.17;100.00;95294.16;4965052;28;24812;-75
2023/08/27 05:29:43;;;;;;;14.55;3.17;;;;;;;15.34;100.00;95278.78;4955089;28;24568;-74
2023/08/27 05:32:09;;;;;;;5.65;2.60;;;;;;;15.37;100.00;95281.13;4956100;28;24930;-75
2023/08/27 05:34:35;;;;;;;4.22;2.58;;;;;;;15.15;100.00;95296.06;4971207;28;24437;-75
2023/08/27 05:37:04;;;;;;;5.63;2.42;;;;;;;15.03;100.00;95297.16;4971389;28;24812;-74
2023/08/27 05:39:30;;;;;;;5.03;2.50;;;;;;;15.10;100.00;95300.06;4956683;28;24454;-75
2023/08/27 05:41:57;;;;;;;5.55;2.40;;;;;;;15.13;100.00;95300.59;4968434;28;24488;-75
2023/08/27 05:44:23;;;;;;;6.85;2.58;;;;;;;15.10;100.00;95302.66;4952170;29;25057;-75
2023/08/27 05:46:50;;;;;;;3.13;2.20;;;;;;;15.24;100.00;95295.25;4961033;28;24488;-75
2023/08/27 05:49:16;;;;;;;4.72;2.42;;;;;;;15.30;100.00;95299.09;4970843;28;24813;-75
2023/08/27 05:51:43;;;;;;;5.37;2.70;;;;;;;15.20;100.00;95300.88;4970856;28;24437;-75
2023/08/27 05:54:10;;;;;;;3.85;2.75;;;;;;;15.33;100.00;95291.00;4967835;28;24445;-75
2023/08/27 05:56:37;;;;;;;4.15;2.60;;;;;;;15.45;100.00;95304.72;4959233;28;25187;-75
2023/08/27 05:59:03;;;;;;;4.55;2.58;;;;;;;15.47;100.00;95297.59;4960703;28;24461;-74
2023/08/27 06:01:30;;;;;;;5.57;2.72;;;;;;;15.53;100.00;95294.41;4952150;28;24989;-75
2023/08/27 06:03:56;;;;;;;4.77;2.50;;;;;;;15.61;100.00;95294.56;4968097;28;24526;-74
2023/08/27 06:06:23;;;;;;;3.58;2.33;;;;;;;15.61;100.00;95291.13;4952209;28;24442;-74
2023/08/27 06:08:49;;;;;;;6.32;2.78;;;;;;;15.58;100.00;95281.78;4960510;28;24806;-74
2023/08/27 06:11:17;;;;;;;5.32;2.30;;;;;;;15.65;100.00;95263.81;4959227;28;24441;-74
2023/08/27 06:13:44;;;;;;;3.78;2.60;;;;;;;15.80;100.00;95262.44;4960024;28;24461;-74
2023/08/27 06:16:10;;;;;;;4.70;2.50;;;;;;;15.79;100.00;95263.38;4966516;28;24441;-75
2023/08/27 06:18:37;;;;;;;5.53;2.50;;;;;;;15.79;100.00;95265.16;4953354;28;24461;-75
2023/08/27 06:21:04;;;;;;;7.15;2.80;;;;;;;15.80;100.00;95272.06;4957891;28;24458;-75
2023/08/27 06:23:30;;;;;;;3.28;1.90;;;;;;;15.83;100.00;95275.16;4964921;28;24465;-74
2023/08/27 06:26:02;;;;;;;3.35;2.13;;;;;;;15.70;100.00;95296.38;4970114;28;24441;-75
2023/08/27 06:28:30;;;;;;;5.68;2.45;;;;;;;15.63;100.00;95308.28;4956580;28;24438;-75
2023/08/27 06:30:57;;;;;;;4.10;2.45;;;;;;;15.65;100.00;95311.63;4959719;28;24802;-75
2023/08/27 06:33:23;;;;;;;3.53;2.20;;;;;;;15.66;100.00;95307.25;4955652;28;24449;-75
2023/08/27 06:35:50;;;;;;;4.43;2.65;;;;;;;15.61;100.00;95314.59;4971269;28;24484;-75
2023/08/27 06:38:17;;;;;;;7.20;3.08;;;;;;;15.65;100.00;95321.22;4959170;28;24441;-75
2023/08/27 06:40:43;;;;;;;5.28;2.50;;;;;;;15.64;100.00;95315.16;4968017;28;24570;-75
2023/08/27 06:43:10;;;;;;;3.85;2.35;;;;;;;15.65;100.00;95326.44;4955515;28;25028;-74
2023/08/27 06:45:37;;;;;;;5.63;2.28;;;;;;;15.62;100.00;95322.31;4955322;28;24438;-75
2023/08/27 06:48:05;;;;;;;5.17;2.40;;;;;;;15.59;100.00;95330.41;4960224;28;24438;-74
2023/08/27 06:50:31;;;;;;;3.85;2.03;;;;;;;15.58;100.00;95320.13;4969436;28;24433;-74
2023/08/27 06:52:58;;;;;;;3.92;2.22;;;;;;;15.64;100.00;95309.94;4963202;28;24853;-74
2023/08/27 06:55:25;;;;;;;11.60;2.10;;;;;;;15.79;100.00;95301.72;4974113;28;24438;-74
2023/08/27 06:57:51;;;;;;;2.47;1.90;;;;;;;15.79;100.00;95294.69;4959068;28;24863;-74
2023/08/27 07:00:19;;;;;;;6.80;2.05;;;;;;;15.86;100.00;95289.75;4969534;28;24460;-74
2023/08/27 07:02:47;;;;;;;2.97;1.73;;;;;;;15.93;100.00;95286.44;4958712;28;25072;-73
2023/08/27 07:05:13;;;;;;;2.95;1.90;;;;;;;15.98;100.00;95275.56;4963771;28;24434;-74
2023/08/27 07:07:40;;;;;;;4.57;2.40;;;;;;;16.10;100.00;95276.25;4956419;28;24442;-73
2023/08/27 07:10:08;;;;;;;2.70;1.77;;;;;;;16.20;100.00;95272.63;4970516;28;24443;-74
2023/08/27 07:12:36;;;;;;;2.20;1.70;;;;;;;16.16;100.00;95273.03;4969858;28;24485;-74
2023/08/27 07:15:04;;;;;;;3.28;2.08;;;;;;;16.10;100.00;95274.44;4965314;28;24990;-74
2023/08/27 07:17:33;;;;;;;4.18;1.90;;;;;;;15.99;100.00;95277.22;4966412;28;24797;-74
2023/08/27 07:20:00;;;;;;;2.37;1.70;;;;;;;16.06;100.00;95270.47;4973455;28;24632;-73
2023/08/27 07:22:27;;;;;;;2.45;1.77;;;;;;;16.17;100.00;95274.72;4972985;28;24983;-74
2023/08/27 07:24:54;;;;;;;2.33;1.70;;;;;;;16.11;100.00;95280.50;4973292;28;24444;-73
2023/08/27 07:27:20;;;;;;;6.25;1.70;;;;;;;16.16;100.00;95275.66;4963361;28;24957;-73
2023/08/27 07:29:47;;;;;;;3.38;2.13;;;;;;;16.08;100.00;95286.00;4954422;28;24441;-72
2023/08/27 07:32:13;;;;;;;3.42;1.90;;;;;;;16.14;100.00;95293.28;4954067;28;24442;-73
2023/08/27 07:34:40;;;;;;;2.97;1.95;;;;;;;16.21;100.00;95295.16;4954457;28;24437;-73
2023/08/27 07:37:08;;;;;;;4.53;1.90;;;;;;;16.21;100.00;95303.00;4954353;28;24437;-73
2023/08/27 07:39:35;;;;;;;3.70;2.30;;;;;;;16.27;100.00;95316.47;4964694;28;24461;-72
2023/08/27 07:42:02;;;;;;;2.97;2.10;;;;;;;16.38;100.00;95313.66;4971855;28;24456;-72
2023/08/27 07:44:29;;;;;;;4.10;2.47;;;;;;;16.33;100.00;95321.94;4973242;28;24444;-73
2023/08/27 07:46:55;;;;;;;2.50;1.80;;;;;;;16.47;100.00;95327.69;4973345;28;24440;-73
2023/08/27 07:49:22;;;;;;;2.30;1.85;;;;;;;16.48;100.00;95338.00;4964385;28;24445;-73
2023/08/27 07:51:48;;;;;;;4.97;1.80;;;;;;;16.56;100.00;95338.09;4954530;28;24442;-74
2023/08/27 07:54:16;;;;;;;3.80;1.90;;;;;;;16.57;100.00;95336.31;4972288;28;24448;-74
2023/08/27 07:56:42;;;;;;;3.13;1.67;;;;;;;16.47;100.00;95353.84;4969345;28;24443;-73
2023/08/27 07:59:09;;;;;;;3.22;2.05;;;;;;;16.47;100.00;95364.28;4954193;28;24802;-73
2023/08/27 08:01:35;;;;;;;3.40;1.77;;;;;;;16.56;100.00;95358.19;4953748;28;24543;-73
2023/08/27 08:04:03;;;;;;;4.25;1.85;;;;;;;16.58;100.00;95357.09;4966526;28;24437;-73
2023/08/27 08:06:29;;;;;;;3.92;1.92;;;;;;;16.53;100.00;95369.75;4953921;28;25000;-72
2023/08/27 08:08:56;;;;;;;3.85;1.67;;;;;;;16.40;100.00;95377.09;4956212;28;24449;-73
2023/08/27 08:11:23;;;;;;;2.10;1.48;;;;;;;16.50;100.00;95377.03;4959290;28;24794;-73
2023/08/27 08:13:51;;;;;;;7.18;2.00;;;;;;;16.53;100.00;95379.38;4953544;28;24457;-75
2023/08/27 08:16:17;;;;;;;5.05;2.00;;;;;;;16.54;100.00;95371.41;4957564;28;24445;-74
2023/08/27 08:18:44;;;;;;;3.17;1.67;;;;;;;16.67;100.00;95364.06;4969223;28;24526;-73
2023/08/27 08:21:11;;;;;;;2.10;1.55;;;;;;;16.81;100.00;95368.03;4957677;28;24513;-72
2023/08/27 08:23:37;;;;;;;5.00;1.95;;;;;;;16.70;100.00;95370.81;4953863;29;24449;-71
2023/08/27 08:26:05;;;;;;;2.35;1.60;;;;;;;16.63;100.00;95375.78;4967799;28;24793;-74
2023/08/27 08:28:33;;;;;;;6.00;1.67;;;;;;;16.60;100.00;95370.00;4972480;28;24882;-78
2023/08/27 08:31:00;;;;;;;3.30;1.73;;;;;;;16.64;100.00;95351.25;4954695;29;25212;-76
2023/08/27 08:33:26;;;;;;;5.15;1.67;;;;;;;16.79;100.00;95354.25;4953971;28;24446;-77
2023/08/27 08:35:53;;;;;;;3.42;1.75;;;;;;;16.66;100.00;95359.81;4969357;28;24437;-76
2023/08/27 08:38:19;;;;;;;5.72;1.95;;;;;;;16.67;100.00;95365.84;4975185;28;24427;-75
2023/08/27 08:40:49;;;;;;;2.53;1.63;;;;;;;16.73;100.00;95367.09;4960770;28;24454;-77
2023/08/27 08:43:26;;;;;;;2.35;1.60;;;;;;;16.76;100.00;95365.03;4967955;28;24448;-76
2023/08/27 08:46:03;;;;;;;5.15;1.73;;;;;;;16.72;100.00;95374.09;4961268;28;24444;-75
2023/08/27 08:48:33;;;;;;;4.30;1.70;;;;;;;16.65;100.00;95376.47;4954190;28;24493;-77
2023/08/27 08:51:04;;;;;;;2.85;1.50;;;;;;;16.71;100.00;95377.66;4968188;28;24448;-76
2023/08/27 08:53:33;;;;;;;2.00;1.65;;;;;;;16.73;100.00;95380.16;4964448;28;24950;-76
2023/08/27 08:56:06;;;;;;;5.05;1.55;;;;;;;16.76;100.00;95378.13;4965820;28;24550;-76
2023/08/27 08:58:35;;;;;;;4.95;1.67;;;;;;;16.91;100.00;95376.66;4972002;28;24971;-76
2023/08/27 09:01:04;;;;;;;2.38;1.90;;;;;;;17.04;100.00;95371.09;4957862;28;25080;-75
2023/08/27 09:03:31;;;;;;;3.55;2.00;;;;;;;17.07;100.00;95375.22;4972828;28;24476;-77
2023/08/27 09:05:58;;;;;;;3.00;1.83;;;;;;;17.22;100.00;95370.31;4968439;28;25008;-76
2023/08/27 09:08:25;;;;;;;3.45;1.80;;;;;;;17.37;100.00;95361.81;4962534;28;24438;-78
2023/08/27 09:10:52;;;;;;;2.40;1.48;;;;;;;17.47;100.00;95348.66;4972165;28;24438;-77
2023/08/27 09:13:21;;;;;;;1.92;1.63;;;;;;;17.41;100.00;95346.63;4961655;28;24461;-78
2023/08/27 09:15:48;;;;;;;3.53;1.45;;;;;;;17.62;100.00;95344.56;4956509;29;24438;-78
2023/08/27 09:18:16;;;;;;;3.90;1.50;;;;;;;17.64;100.00;95332.13;4953402;29;25004;-76
2023/08/27 09:20:43;;;;;;;2.42;1.50;;;;;;;17.56;100.00;95333.84;4969708;28;24453;-76
2023/08/27 09:23:09;;;;;;;3.08;1.50;;;;;;;17.84;100.00;95335.44;4972931;28;24421;-75
2023/08/27 09:25:36;;;;;;;2.03;1.30;;;;;;;18.30;100.00;95335.28;4967640;28;24878;-74
2023/08/27 09:28:03;;;;;;;2.08;1.33;;;;;;;18.73;100.00;95321.28;4971438;28;24440;-75
2023/08/27 09:30:31;;;;;;;4.47;1.38;;;;;;;18.95;100.00;95330.41;4971093;28;24444;-74
2023/08/27 09:32:58;;;;;;;2.27;1.43;;;;;;;18.53;100.00;95339.00;4971390;28;24453;-74
2023/08/27 09:35:36;;;;;;;3.55;1.50;;;;;;;18.42;100.00;95347.13;4972886;28;24446;-79
2023/08/27 09:38:03;;;;;;;3.50;1.55;;;;;;;18.66;100.00;95340.41;4974223;28;24425;-79
2023/08/27 09:40:30;;;;;;;2.50;1.42;;;;;;;18.95;100.00;95334.78;4959375;28;24458;-77
2023/08/27 09:43:04;;;;;;;2.40;1.30;;;;;;;19.05;100.00;95338.13;4984401;28;24445;-78
2023/08/27 09:45:30;;;;;;;1.50;1.30;;;;;;;19.03;100.00;95325.16;4987895;28;24546;-77
2023/08/27 09:47:57;;;;;;;3.72;1.70;;;;;;;18.78;100.00;95349.66;4963993;28;24850;-74
2023/08/27 09:50:27;;;;;;;1.35;1.05;;;;;;;18.53;100.00;95339.00;4966506;28;24438;-77
2023/08/27 09:52:55;;;;;;;9.73;1.73;;;;;;;18.78;100.00;95352.28;4954513;28;24445;-76
2023/08/27 09:55:22;;;;;;;3.45;1.80;;;;;;;18.52;100.00;95344.41;4954582;28;24426;-74
2023/08/27 09:57:50;;;;;;;4.40;1.77;;;;;;;18.63;100.00;95333.66;4961631;28;24821;-74
2023/08/27 10:00:18;;;;;;;1.80;1.38;;;;;;;18.75;100.00;95326.38;4971361;28;24437;-75
2023/08/27 10:02:45;;;;;;;3.05;1.75;;;;;;;18.46;100.00;95339.78;4955880;28;25061;-75
2023/08/27 10:05:11;;;;;;;3.23;1.70;;;;;;;18.61;100.00;95339.06;4962268;28;24441;-76
2023/08/27 10:07:39;;;;;;;4.25;1.77;;;;;;;18.76;100.00;95341.13;4959519;28;25019;-75
2023/08/27 10:10:06;;;;;;;4.70;1.73;;;;;;;18.42;100.00;95338.44;4961049;28;24441;-76
2023/08/27 10:12:34;;;;;;;3.22;1.58;;;;;;;18.68;100.00;95341.88;4952817;28;24442;-74
2023/08/27 10:15:04;;;;;;;4.88;1.65;;;;;;;18.56;100.00;95336.06;4953643;28;24544;-74
2023/08/27 10:17:32;;;;;;;4.72;1.42;;;;;;;18.73;100.00;95321.28;4960135;28;25035;-75
2023/08/27 10:20:01;;;;;;;3.30;1.58;;;;;;;18.99;100.00;95320.41;4971109;28;24793;-74
2023/08/27 10:22:28;;;;;;;3.60;1.85;;;;;;;18.92;100.00;95325.47;4970839;28;24493;-74
2023/08/27 10:24:58;;;;;;;2.80;1.70;;;;;;;18.60;100.00;95321.66;4970873;28;24505;-76
2023/08/27 10:27:24;;;;;;;6.82;1.70;;;;;;;19.08;100.00;95335.19;4971087;28;24440;-74
2023/08/27 10:29:52;;;;;;;2.45;1.40;;;;;;;19.33;100.00;95333.47;4961559;28;24460;-76
2023/08/27 10:32:19;;;;;;;8.18;1.75;;;;;;;19.61;100.00;95338.41;4964840;28;24426;-76
2023/08/27 10:34:45;;;;;;;2.85;1.42;;;;;;;19.79;100.00;95333.88;4956832;28;24835;-76
2023/08/27 10:37:13;;;;;;;4.90;2.03;;;;;;;19.91;100.00;95323.84;4952477;28;25012;-76
2023/08/27 10:39:41;;;;;;;1.75;1.60;;;;;;;19.59;100.00;95323.66;4952607;28;24438;-76
2023/08/27 10:42:08;;;;;;;1.80;1.50;;;;;;;19.64;100.00;95336.31;4966259;28;24445;-76
2023/08/27 10:44:36;;;;;;;3.80;1.55;;;;;;;19.73;100.00;95339.78;4970885;28;24437;-76
2023/08/27 10:47:10;;;;;;;2.40;1.48;;;;;;;19.68;100.00;95334.19;4971442;28;24441;-76
2023/08/27 10:49:37;;;;;;;3.88;1.60;;;;;;;19.73;100.00;95331.91;4962237;28;25256;-77
2023/08/27 10:52:15;;;;;;;2.00;1.30;;;;;;;19.78;100.00;95329.59;4952669;28;24855;-75
2023/08/27 10:54:41;;;;;;;3.28;1.40;;;;;;;19.51;100.00;95330.72;4954593;28;24811;-76
2023/08/27 10:57:20;;;;;;;2.63;1.48;;;;;;;19.55;100.00;95324.16;4966605;28;24438;-76
2023/08/27 10:59:47;;;;;;;4.20;1.30;;;;;;;19.30;100.00;95321.47;4952986;28;24446;-76
2023/08/27 11:02:16;;;;;;;3.25;1.52;;;;;;;19.39;100.00;95332.78;4952846;28;24470;-76
2023/08/27 11:04:44;;;;;;;1.80;1.40;;;;;;;19.52;100.00;95338.41;4964405;28;24996;-76
2023/08/27 11:07:12;;;;;;;4.38;1.40;;;;;;;19.52;100.00;95335.78;4958299;28;24437;-76
2023/08/27 11:09:47;;;;;;;2.00;1.25;;;;;;;19.58;100.00;95340.41;4971260;28;24984;-75
2023/08/27 11:12:23;;;;;;;3.65;1.60;;;;;;;19.55;100.00;95327.59;4971009;28;24540;-76
2023/08/27 11:14:50;;;;;;;4.10;1.40;;;;;;;19.74;100.00;95331.75;4970782;28;24488;-76
2023/08/27 11:17:23;;;;;;;2.75;1.65;;;;;;;19.64;100.00;95333.69;4966613;28;25043;-76
2023/08/27 11:19:50;;;;;;;3.30;1.83;;;;;;;19.43;100.00;95330.66;4955717;28;24461;-76
2023/08/27 11:22:19;;;;;;;3.10;1.35;;;;;;;19.67;100.00;95322.06;4969213;28;24480;-75
2023/08/27 11:24:47;;;;;;;2.50;1.13;;;;;;;19.66;100.00;95320.41;4960885;28;24533;-76